Flugplatz Barßel

EDXL · 下萨克森, 德国

罗盘
风向 的 Flugplatz Barßel 12/30
风: 2 kt, 1 beaufort

1 kt

2 kt
改变
0 1.000 2.000 3.000 4.000 5.000
N/A
METAR ETNT 290120Z AUTO VRB02KT //// // ////// 06/06 Q1013 ///

METAR Flugplatz Barßel - EDXL

Flugplatz Barßel是,德国中的小机场。 该机场有一条跑道: 12/30. 该领域的国际民航组织标志是EDXL.

这份报告是针对2022年11月29日 02:20, 当地时间在Wittmundhafen Air Base进行的。

机场观察

可变方向的风很小或没有风。

温度为6 °C,阵风为5 °C。 露点为6 °C,相对湿度为100%。 海平面上的气压为1013 hPa (QNH)。

白天

今天,太阳从08:17升起,在16:17降落。 这适用于Flugplatz Barßel,世界夏令时可能有所不同。 当地时间与世界标准时间之间的时差为+1 小时。 当前,没有夏令时有效。

公司介绍

我们没有关于这个机场的公司信息。

体会

到Vliegles.nl去找飞行课程,跳伞和其他飞行体验。 浏览页面,了解Flugplatz Barßel附近所有可用的活动。 你也可以使用搜索功能来寻找你所在地附近的特定飞行课程、跳伞或其他飞行体验。

跑道

Id 标题 侧风 逆风 侧风 %
12/30 120°-300° 2 kt 1 kt 87 %

逆风成分最大的方向会被突出显示,并用于横风计算。 这并不一定意味着这个方向在使用。

乌云

0 ft

温度 & 天气

温度 6 °C
露点 6 °C
相对湿度 100%
风寒 5 °C
Kp-index 4 (0-9)

白天

日出
08:19 (5:02)
中午
12:17
日落
16:15

小工具

你想在你的网站上有一个关于Flugplatz Barßel的当前航空天气(METAR)的小部件吗?

显示HTML代码

我们和第三方通过cookies跟踪您在我们网站上的互联网行为。如果你继续,我们认为你同意我们的饼干政策